createdAt,value
2023-09-23T00:00:50.928Z,100729.94
2023-09-23T00:03:18.328Z,100733.63
2023-09-23T00:05:45.618Z,100731.13
2023-09-23T00:08:12.843Z,100732.78
2023-09-23T00:10:40.214Z,100742.63
2023-09-23T00:13:07.385Z,100733.97
2023-09-23T00:15:35.653Z,100733.16
2023-09-23T00:18:03.590Z,100735.81
2023-09-23T00:20:34.257Z,100739.91
2023-09-23T00:23:02.422Z,100733.50
2023-09-23T00:25:29.621Z,100733.22
2023-09-23T00:27:59.280Z,100729.75
2023-09-23T00:30:27.924Z,100736.91
2023-09-23T00:32:55.213Z,100742.25
2023-09-23T00:35:22.244Z,100742.59
2023-09-23T00:37:50.181Z,100738.28
2023-09-23T00:40:28.955Z,100742.41
2023-09-23T00:43:10.187Z,100740.19
2023-09-23T00:45:37.234Z,100736.88
2023-09-23T00:48:09.619Z,100737.34
2023-09-23T00:50:36.958Z,100730.16
2023-09-23T00:53:06.401Z,100734.88
2023-09-23T00:55:40.764Z,100740.56
2023-09-23T00:58:08.655Z,100737.22
2023-09-23T01:00:37.402Z,100733.91
2023-09-23T01:03:04.488Z,100740.06
2023-09-23T01:05:32.158Z,100736.56
2023-09-23T01:08:05.783Z,100733.66
2023-09-23T01:10:32.879Z,100729.66
2023-09-23T01:13:00.068Z,100736.66
2023-09-23T01:15:29.662Z,100723.06
2023-09-23T01:17:56.922Z,100732.41
2023-09-23T01:20:24.170Z,100724.78
2023-09-23T01:22:51.114Z,100734.63
2023-09-23T01:25:20.900Z,100733.81
2023-09-23T01:27:47.853Z,100731.13
2023-09-23T01:30:15.121Z,100738.47
2023-09-23T01:32:49.489Z,100732.66
2023-09-23T01:35:18.012Z,100736.34
2023-09-23T01:37:46.053Z,100729.25
2023-09-23T01:40:19.119Z,100733.28
2023-09-23T01:42:50.347Z,100726.56
2023-09-23T01:45:18.247Z,100739.06
2023-09-23T01:47:45.606Z,100730.44
2023-09-23T01:50:14.495Z,100739.63
2023-09-23T01:52:44.483Z,100739.97
2023-09-23T01:55:13.998Z,100732.31
2023-09-23T01:57:43.729Z,100740.53
2023-09-23T02:00:16.196Z,100745.38
2023-09-23T02:02:43.432Z,100748.34
2023-09-23T02:05:10.560Z,100744.00
2023-09-23T02:07:37.627Z,100755.03
2023-09-23T02:10:04.619Z,100750.53
2023-09-23T02:12:33.403Z,100741.06
2023-09-23T02:15:00.319Z,100751.72
2023-09-23T02:17:27.422Z,100750.06
2023-09-23T02:19:55.113Z,100750.41
2023-09-23T02:22:22.112Z,100748.78
2023-09-23T02:24:49.707Z,100752.13
2023-09-23T02:27:17.548Z,100752.13
2023-09-23T02:29:44.684Z,100755.84
2023-09-23T02:32:12.488Z,100752.19
2023-09-23T02:34:40.984Z,100754.72
2023-09-23T02:37:08.005Z,100755.00
2023-09-23T02:39:34.896Z,100759.94
2023-09-23T02:42:05.699Z,100757.25
2023-09-23T02:44:32.716Z,100757.94
2023-09-23T02:46:59.703Z,100760.44
2023-09-23T02:49:26.658Z,100762.94
2023-09-23T02:51:53.543Z,100760.25
2023-09-23T02:54:20.429Z,100752.75
2023-09-23T02:56:48.080Z,100761.25
2023-09-23T02:59:16.814Z,100768.25
2023-09-23T03:01:49.943Z,100757.59
2023-09-23T03:04:26.601Z,100758.94
2023-09-23T03:07:02.941Z,100764.66
2023-09-23T03:09:33.555Z,100760.00
2023-09-23T03:12:02.184Z,100760.53
2023-09-23T03:14:44.305Z,100760.69
2023-09-23T03:17:14.182Z,100760.03
2023-09-23T03:19:41.275Z,100764.06
2023-09-23T03:22:09.223Z,100763.84
2023-09-23T03:24:36.317Z,100774.00
2023-09-23T03:27:03.479Z,100771.34
2023-09-23T03:29:32.298Z,100771.16
2023-09-23T03:32:00.782Z,100770.34
2023-09-23T03:34:28.269Z,100766.69
2023-09-23T03:36:56.283Z,100770.66
2023-09-23T03:39:23.812Z,100765.00
2023-09-23T03:41:50.748Z,100775.28
2023-09-23T03:44:17.891Z,100771.00
2023-09-23T03:46:48.737Z,100782.09
2023-09-23T03:49:15.797Z,100779.28
2023-09-23T03:51:43.007Z,100776.63
2023-09-23T03:54:09.893Z,100776.28
2023-09-23T03:56:36.893Z,100785.25
2023-09-23T03:59:06.696Z,100778.94
2023-09-23T04:01:34.704Z,100779.78
2023-09-23T04:04:03.956Z,100787.94
2023-09-23T04:06:31.448Z,100786.94
2023-09-23T04:09:00.357Z,100783.28
2023-09-23T04:11:28.262Z,100783.88
2023-09-23T04:13:55.395Z,100779.34
2023-09-23T04:16:23.174Z,100784.28
2023-09-23T04:18:53.052Z,100788.94
2023-09-23T04:21:22.630Z,100785.09
2023-09-23T04:23:53.708Z,100791.88
2023-09-23T04:26:25.542Z,100786.44
2023-09-23T04:28:55.405Z,100795.28
2023-09-23T04:31:25.439Z,100797.28
2023-09-23T04:33:52.814Z,100798.66
2023-09-23T04:36:22.583Z,100793.28
2023-09-23T04:38:49.827Z,100799.25
2023-09-23T04:41:16.802Z,100803.19
2023-09-23T04:43:43.749Z,100799.50
2023-09-23T04:46:15.922Z,100812.50
2023-09-23T04:48:44.211Z,100808.47
2023-09-23T04:51:11.452Z,100812.94
2023-09-23T04:53:38.395Z,100811.38
2023-09-23T04:56:09.810Z,100818.53
2023-09-23T04:58:36.835Z,100809.38
2023-09-23T05:01:05.260Z,100809.97
2023-09-23T05:03:32.129Z,100807.91
2023-09-23T05:05:59.130Z,100808.66
2023-09-23T05:08:26.189Z,100812.09
2023-09-23T05:10:53.178Z,100809.31
2023-09-23T05:13:20.099Z,100811.44
2023-09-23T05:15:47.018Z,100812.22
2023-09-23T05:18:14.340Z,100809.53
2023-09-23T05:20:41.701Z,100816.38
2023-09-23T05:23:08.625Z,100813.31
2023-09-23T05:25:37.294Z,100812.53
2023-09-23T05:28:06.638Z,100813.91
2023-09-23T05:30:34.733Z,100823.78
2023-09-23T05:33:02.028Z,100813.63
2023-09-23T05:35:29.297Z,100811.59
2023-09-23T05:37:56.233Z,100816.81
2023-09-23T05:40:23.248Z,100821.78
2023-09-23T05:42:53.677Z,100806.31
2023-09-23T05:45:27.326Z,100816.53
2023-09-23T05:47:54.518Z,100820.50
2023-09-23T05:50:22.392Z,100806.78
2023-09-23T05:52:49.925Z,100814.78
2023-09-23T05:55:17.384Z,100812.09
2023-09-23T05:57:44.391Z,100812.81
2023-09-23T06:00:12.411Z,100815.97
2023-09-23T06:02:41.145Z,100812.34
2023-09-23T06:05:08.464Z,100820.13
2023-09-23T06:07:35.424Z,100825.28
2023-09-23T06:10:05.294Z,100820.69
2023-09-23T06:12:33.465Z,100819.91
2023-09-23T06:15:01.368Z,100818.69
2023-09-23T06:17:30.158Z,100819.00
2023-09-23T06:19:57.346Z,100817.66
2023-09-23T06:22:24.561Z,100811.06
2023-09-23T06:24:51.870Z,100822.50
2023-09-23T06:27:19.145Z,100814.34
2023-09-23T06:29:46.110Z,100816.44
2023-09-23T06:32:13.776Z,100819.66
2023-09-23T06:34:40.833Z,100812.75
2023-09-23T06:37:07.728Z,100804.97
2023-09-23T06:39:34.680Z,100815.75
2023-09-23T06:42:01.590Z,100816.16
2023-09-23T06:44:28.555Z,100815.47
2023-09-23T06:46:55.655Z,100815.47
2023-09-23T06:49:22.661Z,100811.41
2023-09-23T06:51:49.614Z,100808.97
2023-09-23T06:54:16.526Z,100810.06
2023-09-23T06:56:43.420Z,100811.38
2023-09-23T06:59:10.396Z,100809.53
2023-09-23T07:01:37.902Z,100811.19
2023-09-23T07:04:06.018Z,100802.13
2023-09-23T07:06:33.079Z,100809.00
2023-09-23T07:09:00.465Z,100809.19
2023-09-23T07:11:27.454Z,100805.09
2023-09-23T07:13:54.456Z,100805.94
2023-09-23T07:16:21.472Z,100800.97
2023-09-23T07:18:48.402Z,100812.78
2023-09-23T07:21:16.719Z,100803.47
2023-09-23T07:23:43.765Z,100803.06
2023-09-23T07:26:10.781Z,100808.41
2023-09-23T07:28:37.802Z,100808.00
2023-09-23T07:31:10.626Z,100806.72
2023-09-23T07:33:37.825Z,100808.16
2023-09-23T07:36:11.784Z,100805.03
2023-09-23T07:38:39.280Z,100808.09
2023-09-23T07:41:06.604Z,100809.53
2023-09-23T07:43:34.016Z,100807.00
2023-09-23T07:46:01.394Z,100809.53
2023-09-23T07:48:28.749Z,100804.50
2023-09-23T07:50:55.915Z,100800.72
2023-09-23T07:53:23.365Z,100797.06
2023-09-23T07:55:51.506Z,100801.50
2023-09-23T07:58:18.567Z,100799.97
2023-09-23T08:00:45.519Z,100804.78
2023-09-23T08:03:12.507Z,100804.72
2023-09-23T08:05:39.492Z,100797.28
2023-09-23T08:08:07.466Z,100801.28
2023-09-23T08:10:34.420Z,100797.97
2023-09-23T08:13:01.482Z,100806.72
2023-09-23T08:15:28.424Z,100802.78
2023-09-23T08:17:55.390Z,100804.91
2023-09-23T08:20:25.225Z,100798.97
2023-09-23T08:22:52.519Z,100803.88
2023-09-23T08:25:19.540Z,100790.75
2023-09-23T08:27:46.903Z,100793.03
2023-09-23T08:30:16.606Z,100797.16
2023-09-23T08:32:43.631Z,100797.53
2023-09-23T08:35:10.672Z,100786.66
2023-09-23T08:37:37.720Z,100777.53
2023-09-23T08:40:12.455Z,100784.47
2023-09-23T08:42:40.108Z,100783.56
2023-09-23T08:45:10.414Z,100786.09
2023-09-23T08:47:41.357Z,100776.69
2023-09-23T08:50:11.859Z,100768.13
2023-09-23T08:52:39.175Z,100769.34
2023-09-23T08:55:08.750Z,100774.25
2023-09-23T08:57:36.129Z,100765.66
2023-09-23T09:00:08.324Z,100767.25
2023-09-23T09:02:35.360Z,100766.41
2023-09-23T09:05:02.514Z,100766.63
2023-09-23T09:07:33.666Z,100760.13
2023-09-23T09:10:00.782Z,100763.31
2023-09-23T09:12:28.154Z,100767.44
2023-09-23T09:14:55.170Z,100762.16
2023-09-23T09:17:22.913Z,100767.69
2023-09-23T09:19:52.493Z,100763.72
2023-09-23T09:22:20.817Z,100761.69
2023-09-23T09:24:50.912Z,100754.59
2023-09-23T09:27:17.965Z,100757.28
2023-09-23T09:29:50.122Z,100760.00
2023-09-23T09:32:22.172Z,100757.06
2023-09-23T09:34:49.965Z,100767.13
2023-09-23T09:37:17.004Z,100763.72
2023-09-23T09:39:57.072Z,100767.03
2023-09-23T09:42:37.131Z,100766.13
2023-09-23T09:45:26.126Z,100757.91
2023-09-23T09:47:54.846Z,100758.34
2023-09-23T09:50:24.890Z,100756.25
2023-09-23T09:52:52.211Z,100755.53
2023-09-23T09:55:20.638Z,100761.91
2023-09-23T09:57:49.264Z,100757.38
2023-09-23T10:00:28.218Z,100752.47
2023-09-23T10:03:00.147Z,100766.53
2023-09-23T10:05:43.017Z,100767.97
2023-09-23T10:08:17.282Z,100760.31
2023-09-23T10:10:47.730Z,100752.50
2023-09-23T10:13:23.793Z,100753.97
2023-09-23T10:15:51.112Z,100762.63
2023-09-23T10:18:21.492Z,100755.84
2023-09-23T10:20:52.305Z,100762.06
2023-09-23T10:23:20.708Z,100763.66
2023-09-23T10:25:52.690Z,100753.06
2023-09-23T10:28:24.557Z,100746.94
2023-09-23T10:31:01.901Z,100749.47
2023-09-23T10:33:31.203Z,100756.06
2023-09-23T10:35:59.627Z,100742.22
2023-09-23T10:38:29.702Z,100740.84
2023-09-23T10:40:56.776Z,100741.81
2023-09-23T10:43:24.546Z,100739.31
2023-09-23T10:45:54.579Z,100736.06
2023-09-23T10:48:22.347Z,100746.06
2023-09-23T10:50:51.952Z,100741.59
2023-09-23T10:53:29.410Z,100737.38
2023-09-23T10:55:57.209Z,100737.38
2023-09-23T10:58:24.440Z,100738.41
2023-09-23T11:00:54.768Z,100741.00
2023-09-23T11:03:22.990Z,100738.75
2023-09-23T11:05:52.544Z,100723.16
2023-09-23T11:08:19.729Z,100728.06
2023-09-23T11:10:47.814Z,100722.91
2023-09-23T11:13:16.065Z,100728.22
2023-09-23T11:15:46.946Z,100728.00
2023-09-23T11:18:18.487Z,100733.91
2023-09-23T11:20:48.202Z,100726.09
2023-09-23T11:23:15.529Z,100720.22
2023-09-23T11:25:43.689Z,100728.00
2023-09-23T11:28:17.804Z,100719.31
2023-09-23T11:30:44.793Z,100715.56
2023-09-23T11:33:13.069Z,100719.31
2023-09-23T11:35:40.911Z,100702.38
2023-09-23T11:38:08.184Z,100706.41
2023-09-23T11:40:37.925Z,100703.72
2023-09-23T11:43:07.363Z,100703.13
2023-09-23T11:45:34.863Z,100703.34
2023-09-23T11:48:05.022Z,100708.84
2023-09-23T11:50:57.097Z,100697.72
2023-09-23T11:53:24.168Z,100706.72
2023-09-23T11:55:51.262Z,100697.78
2023-09-23T11:58:18.241Z,100694.63
2023-09-23T12:00:45.412Z,100703.34
2023-09-23T12:03:12.935Z,100697.34
2023-09-23T12:05:41.315Z,100696.50
2023-09-23T12:08:11.171Z,100692.16
2023-09-23T12:10:38.195Z,100701.56
2023-09-23T12:13:06.866Z,100697.94
2023-09-23T12:15:35.402Z,100702.75
2023-09-23T12:18:02.726Z,100691.59
2023-09-23T12:20:30.019Z,100687.25
2023-09-23T12:23:00.212Z,100695.78
2023-09-23T12:25:27.337Z,100692.28
2023-09-23T12:27:54.756Z,100688.66
2023-09-23T12:30:22.014Z,100693.47
2023-09-23T12:32:49.014Z,100697.13
2023-09-23T12:35:16.054Z,100683.38
2023-09-23T12:37:43.098Z,100697.69
2023-09-23T12:40:11.340Z,100691.34
2023-09-23T12:42:38.632Z,100691.84
2023-09-23T12:45:07.644Z,100688.41
2023-09-23T12:47:53.251Z,100689.00
2023-09-23T12:50:21.705Z,100684.09
2023-09-23T12:52:48.749Z,100682.88
2023-09-23T12:55:16.006Z,100690.38
2023-09-23T12:57:42.918Z,100682.03
2023-09-23T13:00:10.548Z,100672.09
2023-09-23T13:02:37.638Z,100672.78
2023-09-23T13:05:04.765Z,100666.66
2023-09-23T13:07:31.763Z,100671.81
2023-09-23T13:09:58.727Z,100671.72
2023-09-23T13:12:25.662Z,100669.84
2023-09-23T13:14:53.736Z,100679.22
2023-09-23T13:17:20.778Z,100672.28
2023-09-23T13:19:47.820Z,100675.34
2023-09-23T13:22:14.741Z,100676.53
2023-09-23T13:24:42.547Z,100669.47
2023-09-23T13:27:09.754Z,100671.34
2023-09-23T13:29:36.828Z,100673.69
2023-09-23T13:32:03.930Z,100667.19
2023-09-23T13:34:30.858Z,100662.56
2023-09-23T13:36:57.742Z,100663.00
2023-09-23T13:39:24.628Z,100669.09
2023-09-23T13:41:54.073Z,100671.91
2023-09-23T13:44:21.473Z,100668.63
2023-09-23T13:46:48.455Z,100669.59
2023-09-23T13:49:15.514Z,100659.63
2023-09-23T13:51:42.528Z,100662.31
2023-09-23T13:54:09.494Z,100658.16
2023-09-23T13:56:37.156Z,100658.16
2023-09-23T13:59:04.240Z,100659.03
2023-09-23T14:01:31.271Z,100657.84
2023-09-23T14:03:58.247Z,100657.88
2023-09-23T14:06:26.015Z,100656.72
2023-09-23T14:08:54.986Z,100654.56
2023-09-23T14:11:22.010Z,100655.19
2023-09-23T14:13:48.929Z,100662.81
2023-09-23T14:16:15.815Z,100660.25
2023-09-23T14:18:42.819Z,100653.25
2023-09-23T14:21:09.884Z,100648.13
2023-09-23T14:23:36.844Z,100657.59
2023-09-23T14:26:04.071Z,100659.56
2023-09-23T14:28:31.019Z,100651.81
2023-09-23T14:30:58.070Z,100655.22
2023-09-23T14:33:25.196Z,100659.44
2023-09-23T14:35:52.732Z,100657.66
2023-09-23T14:38:19.723Z,100652.75
2023-09-23T14:40:47.543Z,100657.63
2023-09-23T14:43:14.480Z,100651.84
2023-09-23T14:45:41.399Z,100659.94
2023-09-23T14:48:08.423Z,100662.00
2023-09-23T14:50:37.335Z,100655.28
2023-09-23T14:53:04.559Z,100657.53
2023-09-23T14:55:32.196Z,100656.00
2023-09-23T14:57:59.442Z,100655.50
2023-09-23T15:00:26.414Z,100654.88
2023-09-23T15:02:53.545Z,100657.00
2023-09-23T15:05:22.097Z,100660.66
2023-09-23T15:07:49.178Z,100663.34
2023-09-23T15:10:16.140Z,100656.75
2023-09-23T15:12:46.823Z,100657.03
2023-09-23T15:15:16.388Z,100659.19
2023-09-23T15:18:20.731Z,100657.63
2023-09-23T15:20:47.731Z,100648.59
2023-09-23T15:23:14.733Z,100654.41
2023-09-23T15:25:41.641Z,100656.53
2023-09-23T15:28:09.646Z,100648.72
2023-09-23T15:30:37.746Z,100656.25
2023-09-23T15:33:05.040Z,100651.41
2023-09-23T15:35:33.052Z,100652.53
2023-09-23T15:38:00.875Z,100650.31
2023-09-23T15:40:27.786Z,100649.56
2023-09-23T15:42:55.081Z,100649.56
2023-09-23T15:45:22.007Z,100647.94
2023-09-23T15:47:49.032Z,100654.78
2023-09-23T15:50:16.299Z,100661.00
2023-09-23T15:52:43.834Z,100655.22
2023-09-23T15:55:12.495Z,100658.41
2023-09-23T15:57:40.333Z,100650.59
2023-09-23T16:00:08.113Z,100652.66
2023-09-23T16:02:35.970Z,100656.59
2023-09-23T16:05:02.980Z,100655.50
2023-09-23T16:07:30.528Z,100652.25
2023-09-23T16:09:57.735Z,100655.34
2023-09-23T16:12:24.683Z,100653.06
2023-09-23T16:14:51.649Z,100651.44
2023-09-23T16:17:18.656Z,100663.44
2023-09-23T16:19:48.878Z,100650.66
2023-09-23T16:22:15.984Z,100651.09
2023-09-23T16:24:44.006Z,100651.28
2023-09-23T16:27:10.925Z,100647.41
2023-09-23T16:29:37.933Z,100654.22
2023-09-23T16:32:05.001Z,100649.28
2023-09-23T16:34:31.971Z,100645.75
2023-09-23T16:37:00.056Z,100639.97
2023-09-23T16:39:27.045Z,100641.44
2023-09-23T16:41:55.261Z,100652.38
2023-09-23T16:44:22.320Z,100649.50
2023-09-23T16:46:58.465Z,100653.22
2023-09-23T16:49:27.924Z,100651.97
2023-09-23T16:51:54.902Z,100655.72
2023-09-23T16:54:21.795Z,100656.97
2023-09-23T16:56:48.815Z,100653.03
2023-09-23T16:59:16.263Z,100658.63
2023-09-23T17:01:49.230Z,100654.50
2023-09-23T17:04:18.378Z,100658.19
2023-09-23T17:06:45.339Z,100653.66
2023-09-23T17:09:12.350Z,100654.09
2023-09-23T17:11:39.347Z,100650.78
2023-09-23T17:14:06.828Z,100652.84
2023-09-23T17:16:35.124Z,100652.00
2023-09-23T17:19:03.624Z,100654.09
2023-09-23T17:21:30.631Z,100658.63
2023-09-23T17:23:57.752Z,100654.91
2023-09-23T17:26:27.608Z,100651.19
2023-09-23T17:29:01.258Z,100651.59
2023-09-23T17:31:28.401Z,100653.69
2023-09-23T17:33:55.616Z,100656.53
2023-09-23T17:36:22.606Z,100643.38
2023-09-23T17:38:49.899Z,100656.56
2023-09-23T17:41:18.264Z,100658.19
2023-09-23T17:43:45.769Z,100652.78
2023-09-23T17:46:12.934Z,100650.56
2023-09-23T17:48:41.436Z,100655.72
2023-09-23T17:51:09.159Z,100641.72
2023-09-23T17:53:36.251Z,100647.69
2023-09-23T17:56:03.785Z,100645.41
2023-09-23T17:58:31.192Z,100642.50
2023-09-23T18:00:58.181Z,100639.81
2023-09-23T18:03:27.500Z,100645.19
2023-09-23T18:05:55.456Z,100644.13
2023-09-23T18:08:22.449Z,100642.88
2023-09-23T18:10:51.304Z,100640.38
2023-09-23T18:13:18.225Z,100635.88
2023-09-23T18:15:45.330Z,100633.41
2023-09-23T18:18:12.480Z,100653.38
2023-09-23T18:20:39.610Z,100645.34
2023-09-23T18:23:07.210Z,100642.88
2023-09-23T18:25:34.198Z,100648.84
2023-09-23T18:28:01.102Z,100647.81
2023-09-23T18:30:29.002Z,100646.19
2023-09-23T18:32:56.169Z,100638.78
2023-09-23T18:35:23.911Z,100636.28
2023-09-23T18:37:51.123Z,100643.91
2023-09-23T18:40:18.129Z,100646.16
2023-09-23T18:42:47.003Z,100646.56
2023-09-23T18:45:14.018Z,100642.22
2023-09-23T18:47:40.978Z,100647.78
2023-09-23T18:50:13.471Z,100640.97
2023-09-23T18:52:40.467Z,100647.78
2023-09-23T18:55:07.553Z,100645.47
2023-09-23T18:57:34.871Z,100640.38
2023-09-23T19:00:04.082Z,100653.13
2023-09-23T19:02:32.226Z,100649.00
2023-09-23T19:04:59.291Z,100653.97
2023-09-23T19:07:26.439Z,100657.22
2023-09-23T19:09:53.770Z,100661.94
2023-09-23T19:12:20.728Z,100649.38
2023-09-23T19:14:47.830Z,100656.00
2023-09-23T19:17:22.201Z,100656.84
2023-09-23T19:19:52.758Z,100656.44
2023-09-23T19:22:19.634Z,100660.53
2023-09-23T19:24:46.554Z,100654.75
2023-09-23T19:27:13.820Z,100655.13
2023-09-23T19:29:40.835Z,100657.31
2023-09-23T19:32:08.992Z,100660.19
2023-09-23T19:34:37.159Z,100659.09
2023-09-23T19:37:04.121Z,100654.94
2023-09-23T19:39:32.535Z,100652.63
2023-09-23T19:41:59.461Z,100653.28
2023-09-23T19:44:27.049Z,100655.22
2023-09-23T19:46:54.024Z,100652.78
2023-09-23T19:49:20.994Z,100654.22
2023-09-23T19:51:47.936Z,100643.34
2023-09-23T19:54:14.987Z,100650.63
2023-09-23T19:56:42.057Z,100652.13
2023-09-23T19:59:10.419Z,100647.56
2023-09-23T20:01:38.932Z,100643.44
2023-09-23T20:04:06.157Z,100646.72
2023-09-23T20:06:33.155Z,100648.78
2023-09-23T20:09:00.213Z,100643.88
2023-09-23T20:11:28.302Z,100642.78
2023-09-23T20:13:55.514Z,100636.38
2023-09-23T20:16:23.198Z,100638.78
2023-09-23T20:18:50.660Z,100633.03
2023-09-23T20:21:17.719Z,100638.78
2023-09-23T20:23:44.908Z,100641.66
2023-09-23T20:26:11.993Z,100639.91
2023-09-23T20:28:38.999Z,100632.25
2023-09-23T20:31:06.217Z,100637.22
2023-09-23T20:33:33.315Z,100635.19
2023-09-23T20:36:01.492Z,100636.97
2023-09-23T20:38:28.570Z,100634.72
2023-09-23T20:41:07.151Z,100637.13
2023-09-23T20:43:36.262Z,100637.78
2023-09-23T20:46:04.609Z,100634.72
2023-09-23T20:48:31.846Z,100622.81
2023-09-23T20:50:59.339Z,100625.09
2023-09-23T20:53:26.343Z,100623.84
2023-09-23T20:55:53.435Z,100614.16
2023-09-23T20:58:20.400Z,100627.28
2023-09-23T21:00:47.385Z,100623.13
2023-09-23T21:03:16.995Z,100616.53
2023-09-23T21:05:44.394Z,100624.59
2023-09-23T21:08:11.579Z,100620.69
2023-09-23T21:10:38.697Z,100624.94
2023-09-23T21:13:05.606Z,100625.41
2023-09-23T21:15:33.535Z,100620.88
2023-09-23T21:18:04.720Z,100628.47
2023-09-23T21:20:32.054Z,100622.06
2023-09-23T21:23:03.093Z,100619.38
2023-09-23T21:25:31.351Z,100630.09
2023-09-23T21:27:58.273Z,100625.19
2023-09-23T21:30:25.839Z,100628.06
2023-09-23T21:32:53.035Z,100624.72
2023-09-23T21:35:20.475Z,100628.44
2023-09-23T21:37:47.407Z,100628.03
2023-09-23T21:40:14.341Z,100623.72
2023-09-23T21:42:41.269Z,100631.50
2023-09-23T21:45:08.453Z,100620.41
2023-09-23T21:47:35.536Z,100625.13
2023-09-23T21:50:02.585Z,100627.56
2023-09-23T21:52:30.750Z,100623.41
2023-09-23T21:54:57.705Z,100625.81
2023-09-23T21:57:26.526Z,100620.91
2023-09-23T21:59:53.660Z,100626.66
2023-09-23T22:02:26.161Z,100624.63
2023-09-23T22:04:53.822Z,100621.97
2023-09-23T22:07:20.704Z,100618.03
2023-09-23T22:09:48.018Z,100620.47
2023-09-23T22:12:16.111Z,100623.16
2023-09-23T22:14:46.414Z,100622.59
2023-09-23T22:17:15.395Z,100626.28
2023-09-23T22:19:42.436Z,100614.34
2023-09-23T22:22:12.173Z,100625.41
2023-09-23T22:24:40.516Z,100623.94
2023-09-23T22:27:07.431Z,100620.81
2023-09-23T22:29:35.057Z,100629.94
2023-09-23T22:32:02.781Z,100629.66
2023-09-23T22:34:29.762Z,100627.19
2023-09-23T22:36:56.758Z,100622.69
2023-09-23T22:39:24.602Z,100620.91
2023-09-23T22:41:51.568Z,100622.56
2023-09-23T22:44:20.058Z,100619.66
2023-09-23T22:46:47.731Z,100627.91
2023-09-23T22:49:16.910Z,100629.28
2023-09-23T22:51:43.824Z,100621.28
2023-09-23T22:54:11.722Z,100625.88
2023-09-23T22:56:38.699Z,100623.84
2023-09-23T22:59:06.065Z,100636.16
2023-09-23T23:01:34.579Z,100636.78
2023-09-23T23:04:01.510Z,100631.22
2023-09-23T23:06:29.076Z,100625.88
2023-09-23T23:08:57.845Z,100626.88
2023-09-23T23:11:25.388Z,100622.94
2023-09-23T23:13:52.372Z,100629.28
2023-09-23T23:16:22.284Z,100624.34
2023-09-23T23:18:49.249Z,100627.72
2023-09-23T23:21:16.146Z,100623.66
2023-09-23T23:23:43.116Z,100624.09
2023-09-23T23:26:10.088Z,100624.47
2023-09-23T23:28:37.669Z,100624.84
2023-09-23T23:31:08.355Z,100611.88
2023-09-23T23:33:35.527Z,100617.22
2023-09-23T23:36:03.841Z,100616.97
2023-09-23T23:38:31.751Z,100620.97
2023-09-23T23:40:59.698Z,100614.44
2023-09-23T23:43:27.528Z,100614.69
2023-09-23T23:46:14.342Z,100616.34
2023-09-23T23:48:41.276Z,100612.00
2023-09-23T23:51:12.368Z,100613.28
2023-09-23T23:53:40.298Z,100621.84
2023-09-23T23:56:07.588Z,100620.59
2023-09-23T23:58:34.627Z,100628.75
